PWSweather.com
Personal Weather Stations
Station Observations

YeovilGB

Lat: 50.949, Lon: -2.627

Elevation: 70

Station Type: Vantage Pro

http://www.yeovil-weather.me.uk/

High Low Average
Temperature 55.9°F13.3°C 46.0°F7.8°C 51.7°F10.9°C
Dew Point 53.5°F11.9°C 43.3°F6.3°C 50.1°F10.1°C
Winds 12.7 mph 20.4 kmh Calm Calm 7.0 mph SSW11.3 kmh SSW
Wind Gusts 21.9 mph35.2 kmh -- 12.0 mph19.3 kmh
Humidity 97% 89% 94%
Pressure 30.10 in1019.3 mb 29.92 in1013.2 mb -
Precipitation 0.02 in0.5 mm - -
Hour Temp Dew Point Humidity Winds Wind Gusts Pressure Precip Precip Rate Daily Precip Total
12:00 AM 46.7°F8.2°C 43.7°F6.5°C 89% Calm Calm 4.6 mph7.4 kmh 30.10 in1019.3 mb - 0.00 in0.0 mm 0.00 in0.0 mm
12:10 AM 46.4°F8.0°C 43.3°F6.3°C 89% Calm Calm -- 30.09 in1019.0 mb - 0.00 in0.0 mm 0.00 in0.0 mm
12:20 AM 46.1°F7.8°C 43.3°F6.3°C 90% Calm Calm 3.5 mph5.6 kmh 30.09 in1019.0 mb - 0.00 in0.0 mm 0.00 in0.0 mm
12:30 AM 46.0°F7.8°C 43.5°F6.4°C 91% Calm Calm 1.2 mph1.9 kmh 30.09 in1019.0 mb - 0.00 in0.0 mm 0.00 in0.0 mm
12:40 AM 46.1°F7.8°C 43.9°F6.6°C 92% Calm Calm 2.3 mph3.7 kmh 30.09 in1019.0 mb - 0.00 in0.0 mm 0.00 in0.0 mm
12:50 AM 46.3°F7.9°C 44.1°F6.7°C 92% 1.2 mph SSW1.9 kmh SSW 3.5 mph5.6 kmh 30.08 in1018.6 mb - 0.00 in0.0 mm 0.00 in0.0 mm
01:00 AM 46.6°F8.1°C 44.7°F7.1°C 93% Calm Calm 1.2 mph1.9 kmh 30.08 in1018.6 mb - 0.00 in0.0 mm 0.00 in0.0 mm
01:10 AM 46.6°F8.1°C 44.7°F7.1°C 93% 1.2 mph S1.9 kmh S 3.5 mph5.6 kmh 30.08 in1018.6 mb - 0.00 in0.0 mm 0.00 in0.0 mm
01:20 AM 47.1°F8.4°C 45.4°F7.4°C 94% 1.2 mph S1.9 kmh S 8.1 mph13.0 kmh 30.08 in1018.6 mb - 0.00 in0.0 mm 0.00 in0.0 mm
01:30 AM 47.5°F8.6°C 45.6°F7.6°C 93% 4.6 mph SSW7.4 kmh SSW 10.4 mph16.7 kmh 30.07 in1018.3 mb - 0.00 in0.0 mm 0.00 in0.0 mm
01:40 AM 47.9°F8.8°C 45.7°F7.6°C 92% 2.3 mph SSW3.7 kmh SSW 9.2 mph14.8 kmh 30.07 in1018.3 mb - 0.00 in0.0 mm 0.00 in0.0 mm
01:50 AM 48.4°F9.1°C 46.2°F7.9°C 92% 3.5 mph S5.6 kmh S 10.4 mph16.7 kmh 30.06 in1017.9 mb - 0.00 in0.0 mm 0.00 in0.0 mm
02:00 AM 48.8°F9.3°C 46.6°F8.1°C 92% 5.8 mph S9.3 kmh S 12.7 mph20.4 kmh 30.05 in1017.6 mb - 0.00 in0.0 mm 0.00 in0.0 mm
02:10 AM 49.2°F9.6°C 47.0°F8.3°C 92% 6.9 mph S11.1 kmh S 12.7 mph20.4 kmh 30.05 in1017.6 mb - 0.00 in0.0 mm 0.00 in0.0 mm
02:20 AM 49.3°F9.6°C 47.1°F8.4°C 92% 4.6 mph SSW7.4 kmh SSW 6.9 mph11.1 kmh 30.06 in1017.9 mb - 0.00 in0.0 mm 0.00 in0.0 mm
02:30 AM 49.4°F9.7°C 47.2°F8.4°C 92% 3.5 mph S5.6 kmh S 11.5 mph18.5 kmh 30.06 in1017.9 mb - 0.00 in0.0 mm 0.00 in0.0 mm
02:40 AM 49.4°F9.7°C 47.2°F8.4°C 92% 4.6 mph S7.4 kmh S 12.7 mph20.4 kmh 30.05 in1017.6 mb - 0.00 in0.0 mm 0.00 in0.0 mm
02:50 AM 49.6°F9.8°C 47.4°F8.6°C 92% 9.2 mph S14.8 kmh S 19.6 mph31.5 kmh 30.05 in1017.6 mb - 0.00 in0.0 mm 0.00 in0.0 mm
03:00 AM 49.8°F9.9°C 47.6°F8.7°C 92% 9.2 mph S14.8 kmh S 13.8 mph22.2 kmh 30.04 in1017.3 mb - 0.00 in0.0 mm 0.00 in0.0 mm
03:10 AM 49.9°F9.9°C 47.7°F8.7°C 92% 9.2 mph S14.8 kmh S 16.1 mph25.9 kmh 30.04 in1017.3 mb - 0.00 in0.0 mm 0.00 in0.0 mm
03:20 AM 50.0°F10.0°C 47.8°F8.8°C 92% 10.4 mph S16.7 kmh S 16.1 mph25.9 kmh 30.03 in1016.9 mb - 0.00 in0.0 mm 0.00 in0.0 mm
03:30 AM 50.1°F10.1°C 47.9°F8.8°C 92% 5.8 mph S9.3 kmh S 12.7 mph20.4 kmh 30.03 in1016.9 mb - 0.00 in0.0 mm 0.00 in0.0 mm
03:40 AM 50.3°F10.2°C 48.0°F8.9°C 92% 8.1 mph S13.0 kmh S 11.5 mph18.5 kmh 30.03 in1016.9 mb - 0.00 in0.0 mm 0.00 in0.0 mm
03:50 AM 50.3°F10.2°C 48.4°F9.1°C 93% 10.4 mph SSW16.7 kmh SSW 19.6 mph31.5 kmh 30.03 in1016.9 mb - 0.00 in0.0 mm 0.00 in0.0 mm
04:00 AM 50.4°F10.2°C 48.4°F9.1°C 93% 9.2 mph S14.8 kmh S 12.7 mph20.4 kmh 30.02 in1016.6 mb - 0.00 in0.0 mm 0.00 in0.0 mm
04:10 AM 50.3°F10.2°C 48.4°F9.1°C 93% 10.4 mph S16.7 kmh S 13.8 mph22.2 kmh 30.01 in1016.3 mb - 0.00 in0.0 mm 0.00 in0.0 mm
04:20 AM 50.2°F10.1°C 48.5°F9.2°C 94% 9.2 mph S14.8 kmh S 11.5 mph18.5 kmh 30.01 in1016.3 mb - 0.00 in0.0 mm 0.00 in0.0 mm
04:30 AM 50.2°F10.1°C 48.5°F9.2°C 94% 8.1 mph S13.0 kmh S 12.7 mph20.4 kmh 30.01 in1016.3 mb - 0.00 in0.0 mm 0.00 in0.0 mm
04:40 AM 50.2°F10.1°C 48.8°F9.3°C 95% 10.4 mph SSW16.7 kmh SSW 15.0 mph24.1 kmh 30.00 in1015.9 mb - 0.00 in0.0 mm 0.00 in0.0 mm
04:50 AM 50.3°F10.2°C 48.9°F9.4°C 95% 9.2 mph S14.8 kmh S 16.1 mph25.9 kmh 30.00 in1015.9 mb - 0.00 in0.0 mm 0.00 in0.0 mm
05:00 AM 50.3°F10.2°C 48.9°F9.4°C 95% 9.2 mph S14.8 kmh S 21.9 mph35.2 kmh 30.00 in1015.9 mb - 0.00 in0.0 mm 0.00 in0.0 mm
05:10 AM 50.4°F10.2°C 49.0°F9.4°C 95% 8.1 mph SSW13.0 kmh SSW 13.8 mph22.2 kmh 30.00 in1015.9 mb - 0.00 in0.0 mm 0.00 in0.0 mm
05:20 AM 50.5°F10.3°C 49.4°F9.7°C 96% 10.4 mph S16.7 kmh S 21.9 mph35.2 kmh 29.99 in1015.6 mb - 0.00 in0.0 mm 0.00 in0.0 mm
05:30 AM 50.6°F10.3°C 49.5°F9.7°C 96% 10.4 mph S16.7 kmh S 15.0 mph24.1 kmh 29.98 in1015.2 mb - 0.00 in0.0 mm 0.00 in0.0 mm
05:40 AM 50.7°F10.4°C 49.6°F9.8°C 96% 9.2 mph S14.8 kmh S 15.0 mph24.1 kmh 29.98 in1015.2 mb - 0.00 in0.0 mm 0.00 in0.0 mm
05:50 AM 50.7°F10.4°C 49.6°F9.8°C 96% 10.4 mph S16.7 kmh S 15.0 mph24.1 kmh 29.98 in1015.2 mb - 0.00 in0.0 mm 0.00 in0.0 mm
06:10 AM 51.1°F10.6°C 50.0°F10.0°C 96% 12.7 mph SSW20.4 kmh SSW 21.9 mph35.2 kmh 29.98 in1015.2 mb - 0.00 in0.0 mm 0.00 in0.0 mm
06:20 AM 51.4°F10.8°C 50.3°F10.2°C 96% 9.2 mph S14.8 kmh S 13.8 mph22.2 kmh 29.98 in1015.2 mb - 0.00 in0.0 mm 0.00 in0.0 mm
06:30 AM 51.5°F10.8°C 50.7°F10.4°C 97% 5.8 mph SW9.3 kmh SW 9.2 mph14.8 kmh 29.98 in1015.2 mb - 0.00 in0.0 mm 0.00 in0.0 mm
06:40 AM 51.6°F10.9°C 50.5°F10.3°C 96% 3.5 mph SSW5.6 kmh SSW 11.5 mph18.5 kmh 29.98 in1015.2 mb - 0.00 in0.0 mm 0.00 in0.0 mm
06:50 AM 51.7°F10.9°C 50.6°F10.3°C 96% 4.6 mph SSW7.4 kmh SSW 10.4 mph16.7 kmh 29.98 in1015.2 mb - 0.00 in0.0 mm 0.00 in0.0 mm
07:00 AM 51.9°F11.1°C 51.1°F10.6°C 97% 9.2 mph S14.8 kmh S 13.8 mph22.2 kmh 29.98 in1015.2 mb - 0.00 in0.0 mm 0.00 in0.0 mm
07:10 AM 52.0°F11.1°C 51.2°F10.7°C 97% 8.1 mph SSW13.0 kmh SSW 13.8 mph22.2 kmh 29.97 in1014.9 mb - 0.00 in0.0 mm 0.00 in0.0 mm
07:20 AM 52.1°F11.2°C 51.3°F10.7°C 97% 8.1 mph S13.0 kmh S 13.8 mph22.2 kmh 29.98 in1015.2 mb - 0.00 in0.0 mm 0.00 in0.0 mm
07:30 AM 52.1°F11.2°C 51.3°F10.7°C 97% 5.8 mph SSW9.3 kmh SSW 11.5 mph18.5 kmh 29.98 in1015.2 mb - 0.00 in0.0 mm 0.00 in0.0 mm
07:40 AM 52.2°F11.2°C 51.4°F10.8°C 97% 6.9 mph SSW11.1 kmh SSW 11.5 mph18.5 kmh 29.97 in1014.9 mb - 0.00 in0.0 mm 0.00 in0.0 mm
07:50 AM 52.3°F11.3°C 51.5°F10.8°C 97% 6.9 mph S11.1 kmh S 12.7 mph20.4 kmh 29.97 in1014.9 mb - 0.00 in0.0 mm 0.00 in0.0 mm
08:00 AM 52.3°F11.3°C 51.5°F10.8°C 97% 6.9 mph S11.1 kmh S 15.0 mph24.1 kmh 29.98 in1015.2 mb - 0.00 in0.0 mm 0.00 in0.0 mm
08:10 AM 52.3°F11.3°C 51.5°F10.8°C 97% 3.5 mph S5.6 kmh S 8.1 mph13.0 kmh 29.98 in1015.2 mb - 0.00 in0.0 mm 0.00 in0.0 mm
08:20 AM 52.3°F11.3°C 51.5°F10.8°C 97% 8.1 mph S13.0 kmh S 16.1 mph25.9 kmh 29.98 in1015.2 mb - 0.00 in0.0 mm 0.00 in0.0 mm
08:30 AM 52.3°F11.3°C 51.5°F10.8°C 97% 10.4 mph S16.7 kmh S 15.0 mph24.1 kmh 29.97 in1014.9 mb - 0.00 in0.0 mm 0.00 in0.0 mm
08:40 AM 52.4°F11.3°C 51.6°F10.9°C 97% 8.1 mph S13.0 kmh S 16.1 mph25.9 kmh 29.97 in1014.9 mb - 0.00 in0.0 mm 0.00 in0.0 mm
08:50 AM 52.4°F11.3°C 51.6°F10.9°C 97% 4.6 mph SSW7.4 kmh SSW 9.2 mph14.8 kmh 29.97 in1014.9 mb - 0.00 in0.0 mm 0.00 in0.0 mm
09:00 AM 52.4°F11.3°C 51.6°F10.9°C 97% 9.2 mph S14.8 kmh S 16.1 mph25.9 kmh 29.96 in1014.6 mb - 0.00 in0.0 mm 0.00 in0.0 mm
09:10 AM 52.5°F11.4°C 51.7°F10.9°C 97% 8.1 mph SW13.0 kmh SW 18.4 mph29.6 kmh 29.96 in1014.6 mb - 0.00 in0.0 mm 0.00 in0.0 mm
09:20 AM 52.5°F11.4°C 51.7°F10.9°C 97% 5.8 mph SW9.3 kmh SW 12.7 mph20.4 kmh 29.97 in1014.9 mb - 0.00 in0.0 mm 0.00 in0.0 mm
09:30 AM 52.5°F11.4°C 51.7°F10.9°C 97% 8.1 mph SSW13.0 kmh SSW 16.1 mph25.9 kmh 29.97 in1014.9 mb - 0.00 in0.0 mm 0.00 in0.0 mm
09:40 AM 52.5°F11.4°C 51.7°F10.9°C 97% 9.2 mph SSW14.8 kmh SSW 10.4 mph16.7 kmh 29.97 in1014.9 mb - 0.00 in0.0 mm 0.00 in0.0 mm
09:50 AM 52.5°F11.4°C 51.7°F10.9°C 97% 5.8 mph SSW9.3 kmh SSW 10.4 mph16.7 kmh 29.97 in1014.9 mb - 0.00 in0.0 mm 0.00 in0.0 mm
10:00 AM 52.5°F11.4°C 51.7°F10.9°C 97% 10.4 mph SW16.7 kmh SW 16.1 mph25.9 kmh 29.97 in1014.9 mb - 0.00 in0.0 mm 0.00 in0.0 mm
10:10 AM 52.6°F11.4°C 51.8°F11.0°C 97% 10.4 mph SW16.7 kmh SW 18.4 mph29.6 kmh 29.97 in1014.9 mb - 0.00 in0.0 mm 0.00 in0.0 mm
10:20 AM 52.7°F11.5°C 51.9°F11.1°C 97% 10.4 mph SW16.7 kmh SW 13.8 mph22.2 kmh 29.97 in1014.9 mb - 0.00 in0.0 mm 0.00 in0.0 mm
10:30 AM 52.8°F11.6°C 52.0°F11.1°C 97% 11.5 mph SW18.5 kmh SW 18.4 mph29.6 kmh 29.97 in1014.9 mb - 0.00 in0.0 mm 0.00 in0.0 mm
10:40 AM 53.0°F11.7°C 52.2°F11.2°C 97% 9.2 mph SSW14.8 kmh SSW 15.0 mph24.1 kmh 29.97 in1014.9 mb - 0.00 in0.0 mm 0.00 in0.0 mm
10:50 AM 53.1°F11.7°C 52.2°F11.2°C 97% 5.8 mph SSW9.3 kmh SSW 9.2 mph14.8 kmh 29.97 in1014.9 mb - 0.00 in0.0 mm 0.00 in0.0 mm
11:00 AM 53.2°F11.8°C 52.4°F11.3°C 97% 10.4 mph SSW16.7 kmh SSW 16.1 mph25.9 kmh 29.97 in1014.9 mb - 0.00 in0.0 mm 0.00 in0.0 mm
11:10 AM 53.5°F11.9°C 52.7°F11.5°C 97% 9.2 mph SSW14.8 kmh SSW 13.8 mph22.2 kmh 29.96 in1014.6 mb - 0.00 in0.0 mm 0.00 in0.0 mm
11:20 AM 53.7°F12.1°C 52.9°F11.6°C 97% 6.9 mph SSW11.1 kmh SSW 10.4 mph16.7 kmh 29.96 in1014.6 mb - 0.00 in0.0 mm 0.00 in0.0 mm
11:30 AM 54.2°F12.3°C 53.1°F11.7°C 96% 8.1 mph SSW13.0 kmh SSW 18.4 mph29.6 kmh 29.96 in1014.6 mb - 0.00 in0.0 mm 0.00 in0.0 mm
11:40 AM 54.4°F12.4°C 53.0°F11.7°C 95% 8.1 mph SW13.0 kmh SW 15.0 mph24.1 kmh 29.96 in1014.6 mb - 0.00 in0.0 mm 0.00 in0.0 mm
11:50 AM 54.8°F12.7°C 53.1°F11.7°C 94% 10.4 mph SSW16.7 kmh SSW 16.1 mph25.9 kmh 29.96 in1014.6 mb - 0.00 in0.0 mm 0.00 in0.0 mm
12:00 PM 54.8°F12.7°C 52.8°F11.6°C 93% 6.9 mph SSW11.1 kmh SSW 11.5 mph18.5 kmh 29.95 in1014.2 mb - 0.00 in0.0 mm 0.00 in0.0 mm
12:10 PM 54.9°F12.7°C 52.9°F11.6°C 93% 9.2 mph SSW14.8 kmh SSW 16.1 mph25.9 kmh 29.95 in1014.2 mb - 0.00 in0.0 mm 0.00 in0.0 mm
12:20 PM 55.5°F13.1°C 53.5°F11.9°C 93% 11.5 mph SSW18.5 kmh SSW 12.7 mph20.4 kmh 29.95 in1014.2 mb - 0.00 in0.0 mm 0.00 in0.0 mm
12:30 PM 55.9°F13.3°C 53.3°F11.8°C 91% 6.9 mph SSW11.1 kmh SSW 11.5 mph18.5 kmh 29.96 in1014.6 mb - 0.00 in0.0 mm 0.00 in0.0 mm
12:40 PM 55.4°F13.0°C 53.1°F11.7°C 92% 9.2 mph SW14.8 kmh SW 19.6 mph31.5 kmh 29.95 in1014.2 mb - 0.01 in0.3 mm 0.01 in0.3 mm
12:50 PM 55.6°F13.1°C 53.3°F11.8°C 92% 6.9 mph SSW11.1 kmh SSW 16.1 mph25.9 kmh 29.95 in1014.2 mb - 0.00 in0.0 mm 0.01 in0.3 mm
01:00 PM 55.5°F13.1°C 52.9°F11.6°C 91% 4.6 mph SW7.4 kmh SW 15.0 mph24.1 kmh 29.94 in1013.9 mb - 0.00 in0.0 mm 0.01 in0.3 mm
01:10 PM 55.6°F13.1°C 53.0°F11.7°C 91% 9.2 mph SSW14.8 kmh SSW 16.1 mph25.9 kmh 29.94 in1013.9 mb - 0.00 in0.0 mm 0.01 in0.3 mm
01:20 PM 55.8°F13.2°C 53.2°F11.8°C 91% 10.4 mph S16.7 kmh S 18.4 mph29.6 kmh 29.93 in1013.5 mb - 0.00 in0.0 mm 0.01 in0.3 mm
01:30 PM 55.8°F13.2°C 53.2°F11.8°C 91% 9.2 mph SSW14.8 kmh SSW 12.7 mph20.4 kmh 29.93 in1013.5 mb - 0.00 in0.0 mm 0.01 in0.3 mm
01:40 PM 55.2°F12.9°C 52.6°F11.4°C 91% 9.2 mph S14.8 kmh S 13.8 mph22.2 kmh 29.93 in1013.5 mb - 0.00 in0.0 mm 0.01 in0.3 mm
01:50 PM 54.7°F12.6°C 52.5°F11.4°C 92% 10.4 mph SSW16.7 kmh SSW 16.1 mph25.9 kmh 29.93 in1013.5 mb - 0.00 in0.0 mm 0.01 in0.3 mm
02:00 PM 54.6°F12.6°C 52.6°F11.4°C 93% 10.4 mph SSW16.7 kmh SSW 18.4 mph29.6 kmh 29.93 in1013.5 mb - 0.00 in0.0 mm 0.01 in0.3 mm
02:10 PM 54.5°F12.5°C 52.5°F11.4°C 93% 6.9 mph S11.1 kmh S 11.5 mph18.5 kmh 29.93 in1013.5 mb - 0.00 in0.0 mm 0.01 in0.3 mm
02:20 PM 54.3°F12.4°C 52.6°F11.4°C 94% 8.1 mph S13.0 kmh S 16.1 mph25.9 kmh 29.93 in1013.5 mb - 0.00 in0.0 mm 0.01 in0.3 mm
02:30 PM 54.2°F12.3°C 52.5°F11.4°C 94% 8.1 mph SSW13.0 kmh SSW 15.0 mph24.1 kmh 29.93 in1013.5 mb - 0.00 in0.0 mm 0.01 in0.3 mm
02:40 PM 54.1°F12.3°C 52.4°F11.3°C 94% 10.4 mph SSW16.7 kmh SSW 16.1 mph25.9 kmh 29.93 in1013.5 mb - 0.00 in0.0 mm 0.01 in0.3 mm
02:50 PM 54.1°F12.3°C 52.4°F11.3°C 94% 9.2 mph SW14.8 kmh SW 11.5 mph18.5 kmh 29.92 in1013.2 mb - 0.00 in0.0 mm 0.01 in0.3 mm
03:00 PM 54.0°F12.2°C 52.4°F11.3°C 94% 6.9 mph SSW11.1 kmh SSW 12.7 mph20.4 kmh 29.92 in1013.2 mb - 0.00 in0.0 mm 0.01 in0.3 mm
03:10 PM 54.1°F12.3°C 52.4°F11.3°C 94% 9.2 mph SSW14.8 kmh SSW 18.4 mph29.6 kmh 29.92 in1013.2 mb - 0.00 in0.0 mm 0.01 in0.3 mm
03:20 PM 54.1°F12.3°C 52.4°F11.3°C 94% 10.4 mph SSW16.7 kmh SSW 19.6 mph31.5 kmh 29.92 in1013.2 mb - 0.00 in0.0 mm 0.01 in0.3 mm
03:30 PM 54.0°F12.2°C 52.3°F11.3°C 94% 9.2 mph SSW14.8 kmh SSW 15.0 mph24.1 kmh 29.93 in1013.5 mb - 0.00 in0.0 mm 0.01 in0.3 mm
03:40 PM 53.9°F12.2°C 52.2°F11.2°C 94% 6.9 mph S11.1 kmh S 13.8 mph22.2 kmh 29.92 in1013.2 mb - 0.00 in0.0 mm 0.01 in0.3 mm
03:50 PM 53.8°F12.1°C 52.4°F11.3°C 95% 8.1 mph S13.0 kmh S 11.5 mph18.5 kmh 29.92 in1013.2 mb - 0.00 in0.0 mm 0.01 in0.3 mm
04:00 PM 53.7°F12.1°C 52.3°F11.3°C 95% 8.1 mph SSW13.0 kmh SSW 15.0 mph24.1 kmh 29.93 in1013.5 mb - 0.00 in0.0 mm 0.01 in0.3 mm
04:10 PM 53.5°F11.9°C 52.1°F11.2°C 95% 6.9 mph SSW11.1 kmh SSW 16.1 mph25.9 kmh 29.93 in1013.5 mb - 0.00 in0.0 mm 0.01 in0.3 mm
04:20 PM 53.4°F11.9°C 52.0°F11.1°C 95% 8.1 mph SSW13.0 kmh SSW 12.7 mph20.4 kmh 29.93 in1013.5 mb - 0.00 in0.0 mm 0.01 in0.3 mm
04:30 PM 53.3°F11.8°C 51.9°F11.1°C 95% 9.2 mph SSW14.8 kmh SSW 15.0 mph24.1 kmh 29.94 in1013.9 mb - 0.00 in0.0 mm 0.01 in0.3 mm
04:40 PM 53.3°F11.8°C 51.9°F11.1°C 95% 8.1 mph SSW13.0 kmh SSW 11.5 mph18.5 kmh 29.94 in1013.9 mb - 0.00 in0.0 mm 0.01 in0.3 mm
04:50 PM 53.2°F11.8°C 51.8°F11.0°C 95% 6.9 mph SW11.1 kmh SW 11.5 mph18.5 kmh 29.95 in1014.2 mb - 0.00 in0.0 mm 0.01 in0.3 mm
05:00 PM 53.2°F11.8°C 51.8°F11.0°C 95% 2.3 mph SW3.7 kmh SW 4.6 mph7.4 kmh 29.96 in1014.6 mb - 0.01 in0.3 mm 0.02 in0.5 mm
05:10 PM 53.2°F11.8°C 52.1°F11.2°C 96% Calm Calm 1.2 mph1.9 kmh 29.96 in1014.6 mb - 0.01 in0.3 mm 0.02 in0.5 mm
05:20 PM 53.3°F11.8°C 52.2°F11.2°C 96% Calm Calm -- 29.96 in1014.6 mb - 0.00 in0.0 mm 0.02 in0.5 mm
05:30 PM 53.2°F11.8°C 52.1°F11.2°C 96% Calm Calm -- 29.96 in1014.6 mb - 0.00 in0.0 mm 0.02 in0.5 mm
05:40 PM 53.2°F11.8°C 52.1°F11.2°C 96% Calm Calm -- 29.96 in1014.6 mb - 0.00 in0.0 mm 0.02 in0.5 mm
05:50 PM 53.1°F11.7°C 52.0°F11.1°C 96% 1.2 mph SW1.9 kmh SW 4.6 mph7.4 kmh 29.96 in1014.6 mb - 0.00 in0.0 mm 0.02 in0.5 mm
06:00 PM 52.8°F11.6°C 51.7°F10.9°C 96% 4.6 mph SW7.4 kmh SW 9.2 mph14.8 kmh 29.96 in1014.6 mb - 0.00 in0.0 mm 0.02 in0.5 mm
06:10 PM 52.5°F11.4°C 51.1°F10.6°C 95% 4.6 mph SW7.4 kmh SW 10.4 mph16.7 kmh 29.96 in1014.6 mb - 0.00 in0.0 mm 0.02 in0.5 mm
06:20 PM 52.2°F11.2°C 50.8°F10.4°C 95% 1.2 mph SSW1.9 kmh SSW 5.8 mph9.3 kmh 29.96 in1014.6 mb - 0.00 in0.0 mm 0.02 in0.5 mm
06:30 PM 51.9°F11.1°C 50.5°F10.3°C 95% 4.6 mph SSW7.4 kmh SSW 9.2 mph14.8 kmh 29.97 in1014.9 mb - 0.00 in0.0 mm 0.02 in0.5 mm
06:40 PM 51.8°F11.0°C 50.7°F10.4°C 96% 4.6 mph SW7.4 kmh SW 10.4 mph16.7 kmh 29.97 in1014.9 mb - 0.00 in0.0 mm 0.02 in0.5 mm
06:50 PM 51.6°F10.9°C 50.5°F10.3°C 96% 3.5 mph SW5.6 kmh SW 9.2 mph14.8 kmh 29.97 in1014.9 mb - 0.00 in0.0 mm 0.02 in0.5 mm
07:00 PM 51.3°F10.7°C 49.9°F9.9°C 95% 2.3 mph SW3.7 kmh SW 4.6 mph7.4 kmh 29.97 in1014.9 mb - 0.00 in0.0 mm 0.02 in0.5 mm
07:10 PM 51.0°F10.6°C 49.9°F9.9°C 96% Calm Calm -- 29.97 in1014.9 mb - 0.00 in0.0 mm 0.02 in0.5 mm
07:20 PM 50.8°F10.4°C 49.4°F9.7°C 95% Calm Calm 2.3 mph3.7 kmh 29.97 in1014.9 mb - 0.00 in0.0 mm 0.02 in0.5 mm
07:30 PM 50.6°F10.3°C 49.5°F9.7°C 96% Calm Calm 1.2 mph1.9 kmh 29.97 in1014.9 mb - 0.00 in0.0 mm 0.02 in0.5 mm
07:40 PM 50.4°F10.2°C 49.3°F9.6°C 96% 1.2 mph SW1.9 kmh SW 6.9 mph11.1 kmh 29.97 in1014.9 mb - 0.00 in0.0 mm 0.02 in0.5 mm
07:50 PM 50.4°F10.2°C 49.3°F9.6°C 96% Calm Calm -- 29.97 in1014.9 mb - 0.00 in0.0 mm 0.02 in0.5 mm
08:00 PM 50.1°F10.1°C 49.0°F9.4°C 96% 2.3 mph SW3.7 kmh SW 10.4 mph16.7 kmh 29.97 in1014.9 mb - 0.00 in0.0 mm 0.02 in0.5 mm
08:10 PM 50.1°F10.1°C 49.0°F9.4°C 96% 1.2 mph SW1.9 kmh SW 8.1 mph13.0 kmh 29.96 in1014.6 mb - 0.00 in0.0 mm 0.02 in0.5 mm
08:20 PM 50.1°F10.1°C 49.0°F9.4°C 96% 1.2 mph SSW1.9 kmh SSW 6.9 mph11.1 kmh 29.96 in1014.6 mb - 0.00 in0.0 mm 0.02 in0.5 mm
08:30 PM 50.1°F10.1°C 48.7°F9.3°C 95% 6.9 mph SSW11.1 kmh SSW 10.4 mph16.7 kmh 29.96 in1014.6 mb - 0.00 in0.0 mm 0.02 in0.5 mm
08:40 PM 50.1°F10.1°C 48.7°F9.3°C 95% 2.3 mph SSW3.7 kmh SSW 10.4 mph16.7 kmh 29.96 in1014.6 mb - 0.00 in0.0 mm 0.02 in0.5 mm
08:50 PM 50.1°F10.1°C 48.7°F9.3°C 95% 6.9 mph SSW11.1 kmh SSW 10.4 mph16.7 kmh 29.96 in1014.6 mb - 0.00 in0.0 mm 0.02 in0.5 mm
09:00 PM 50.1°F10.1°C 48.7°F9.3°C 95% 6.9 mph SSW11.1 kmh SSW 11.5 mph18.5 kmh 29.96 in1014.6 mb - 0.00 in0.0 mm 0.02 in0.5 mm
09:10 PM 50.1°F10.1°C 48.7°F9.3°C 95% 5.8 mph SSW9.3 kmh SSW 9.2 mph14.8 kmh 29.96 in1014.6 mb - 0.00 in0.0 mm 0.02 in0.5 mm
09:20 PM 50.1°F10.1°C 48.7°F9.3°C 95% 3.5 mph SSW5.6 kmh SSW 15.0 mph24.1 kmh 29.96 in1014.6 mb - 0.00 in0.0 mm 0.02 in0.5 mm
09:30 PM 50.2°F10.1°C 48.8°F9.3°C 95% 9.2 mph S14.8 kmh S 20.7 mph33.3 kmh 29.96 in1014.6 mb - 0.00 in0.0 mm 0.02 in0.5 mm
09:40 PM 50.3°F10.2°C 48.6°F9.2°C 94% 5.8 mph SSW9.3 kmh SSW 11.5 mph18.5 kmh 29.95 in1014.2 mb - 0.00 in0.0 mm 0.02 in0.5 mm
09:50 PM 50.4°F10.2°C 48.7°F9.3°C 94% 9.2 mph SSW14.8 kmh SSW 15.0 mph24.1 kmh 29.95 in1014.2 mb - 0.00 in0.0 mm 0.02 in0.5 mm
10:00 PM 50.4°F10.2°C 48.7°F9.3°C 94% 4.6 mph SSW7.4 kmh SSW 16.1 mph25.9 kmh 29.95 in1014.2 mb - 0.00 in0.0 mm 0.02 in0.5 mm
10:10 PM 50.4°F10.2°C 48.5°F9.2°C 93% 8.1 mph SSW13.0 kmh SSW 16.1 mph25.9 kmh 29.94 in1013.9 mb - 0.00 in0.0 mm 0.02 in0.5 mm
10:20 PM 50.7°F10.4°C 49.0°F9.4°C 94% 10.4 mph SSW16.7 kmh SSW 16.1 mph25.9 kmh 29.94 in1013.9 mb - 0.00 in0.0 mm 0.02 in0.5 mm
10:30 PM 50.8°F10.4°C 49.1°F9.5°C 94% 6.9 mph SSW11.1 kmh SSW 12.7 mph20.4 kmh 29.94 in1013.9 mb - 0.00 in0.0 mm 0.02 in0.5 mm
10:40 PM 50.9°F10.5°C 49.2°F9.6°C 94% 8.1 mph SSW13.0 kmh SSW 18.4 mph29.6 kmh 29.94 in1013.9 mb - 0.00 in0.0 mm 0.02 in0.5 mm
10:50 PM 50.9°F10.5°C 49.2°F9.6°C 94% 10.4 mph S16.7 kmh S 13.8 mph22.2 kmh 29.93 in1013.5 mb - 0.00 in0.0 mm 0.02 in0.5 mm
11:00 PM 51.0°F10.6°C 49.3°F9.6°C 94% 9.2 mph S14.8 kmh S 16.1 mph25.9 kmh 29.94 in1013.9 mb - 0.00 in0.0 mm 0.02 in0.5 mm
11:10 PM 51.0°F10.6°C 49.0°F9.4°C 93% 10.4 mph SSW16.7 kmh SSW 18.4 mph29.6 kmh 29.93 in1013.5 mb - 0.00 in0.0 mm 0.02 in0.5 mm
11:20 PM 51.1°F10.6°C 49.1°F9.5°C 93% 9.2 mph SSW14.8 kmh SSW 19.6 mph31.5 kmh 29.93 in1013.5 mb - 0.00 in0.0 mm 0.02 in0.5 mm
11:30 PM 51.3°F10.7°C 49.3°F9.6°C 93% 10.4 mph SSW16.7 kmh SSW 16.1 mph25.9 kmh 29.93 in1013.5 mb - 0.00 in0.0 mm 0.02 in0.5 mm
11:40 PM 51.4°F10.8°C 49.4°F9.7°C 93% 9.2 mph SSW14.8 kmh SSW 12.7 mph20.4 kmh 29.92 in1013.2 mb - 0.00 in0.0 mm 0.02 in0.5 mm
11:50 PM 51.5°F10.8°C 49.5°F9.7°C 93% 11.5 mph S18.5 kmh S 20.7 mph33.3 kmh 29.92 in1013.2 mb - 0.00 in0.0 mm 0.02 in0.5 mm